sensor_id;sensor_type;location;lat;lon;timestamp;P1;durP1;ratioP1;P2;durP2;ratioP2
27424;SDS011;15244;49.088;11.886;2023-05-10T00:02:32;2.13;;;2.03;;
27424;SDS011;15244;49.088;11.886;2023-05-10T00:07:34;2.20;;;2.00;;
27424;SDS011;15244;49.088;11.886;2023-05-10T00:12:36;2.40;;;2.30;;
27424;SDS011;15244;49.088;11.886;2023-05-10T00:17:37;2.70;;;2.53;;
27424;SDS011;15244;49.088;11.886;2023-05-10T00:22:39;2.53;;;2.33;;
27424;SDS011;15244;49.088;11.886;2023-05-10T00:27:41;2.05;;;1.95;;
27424;SDS011;15244;49.088;11.886;2023-05-10T00:32:42;2.38;;;2.17;;
27424;SDS011;15244;49.088;11.886;2023-05-10T00:37:44;2.60;;;2.40;;
27424;SDS011;15244;49.088;11.886;2023-05-10T00:42:46;2.78;;;2.58;;
27424;SDS011;15244;49.088;11.886;2023-05-10T00:47:48;3.63;;;2.42;;
27424;SDS011;15244;49.088;11.886;2023-05-10T00:52:51;2.80;;;2.60;;
27424;SDS011;15244;49.088;11.886;2023-05-10T00:57:53;2.65;;;2.45;;
27424;SDS011;15244;49.088;11.886;2023-05-10T01:02:55;3.05;;;2.75;;
27424;SDS011;15244;49.088;11.886;2023-05-10T01:07:57;3.28;;;3.08;;
27424;SDS011;15244;49.088;11.886;2023-05-10T01:12:58;2.95;;;2.83;;
27424;SDS011;15244;49.088;11.886;2023-05-10T01:18:00;2.95;;;2.75;;
27424;SDS011;15244;49.088;11.886;2023-05-10T01:28:36;3.00;;;2.80;;
27424;SDS011;15244;49.088;11.886;2023-05-10T01:33:52;2.65;;;2.55;;
27424;SDS011;15244;49.088;11.886;2023-05-10T01:39:16;4.80;;;2.85;;
27424;SDS011;15244;49.088;11.886;2023-05-10T01:44:31;4.65;;;3.22;;
27424;SDS011;15244;49.088;11.886;2023-05-10T01:49:39;3.13;;;2.78;;
27424;SDS011;15244;49.088;11.886;2023-05-10T01:54:49;5.63;;;2.95;;
27424;SDS011;15244;49.088;11.886;2023-05-10T01:59:55;3.30;;;3.00;;
27424;SDS011;15244;49.088;11.886;2023-05-10T02:04:58;3.70;;;3.40;;
27424;SDS011;15244;49.088;11.886;2023-05-10T02:10:01;7.30;;;2.95;;
27424;SDS011;15244;49.088;11.886;2023-05-10T02:15:06;7.25;;;3.78;;
27424;SDS011;15244;49.088;11.886;2023-05-10T02:20:08;5.55;;;3.22;;
27424;SDS011;15244;49.088;11.886;2023-05-10T02:25:12;3.58;;;2.97;;
27424;SDS011;15244;49.088;11.886;2023-05-10T02:30:15;4.22;;;2.95;;
27424;SDS011;15244;49.088;11.886;2023-05-10T02:35:19;3.42;;;3.20;;
27424;SDS011;15244;49.088;11.886;2023-05-10T02:40:22;9.07;;;3.83;;
27424;SDS011;15244;49.088;11.886;2023-05-10T02:45:29;4.15;;;3.20;;
27424;SDS011;15244;49.088;11.886;2023-05-10T02:50:33;3.53;;;3.33;;
27424;SDS011;15244;49.088;11.886;2023-05-10T02:55:36;3.40;;;3.10;;
27424;SDS011;15244;49.088;11.886;2023-05-10T03:00:40;3.63;;;3.42;;
27424;SDS011;15244;49.088;11.886;2023-05-10T03:05:41;3.58;;;3.28;;
27424;SDS011;15244;49.088;11.886;2023-05-10T03:10:59;4.57;;;3.85;;
27424;SDS011;15244;49.088;11.886;2023-05-10T03:16:11;3.70;;;3.40;;
27424;SDS011;15244;49.088;11.886;2023-05-10T03:21:17;3.70;;;3.50;;
27424;SDS011;15244;49.088;11.886;2023-05-10T03:26:24;4.75;;;3.85;;
27424;SDS011;15244;49.088;11.886;2023-05-10T03:31:35;4.85;;;3.83;;
27424;SDS011;15244;49.088;11.886;2023-05-10T03:36:37;4.57;;;3.95;;
27424;SDS011;15244;49.088;11.886;2023-05-10T03:41:39;4.00;;;3.70;;
27424;SDS011;15244;49.088;11.886;2023-05-10T03:46:40;3.85;;;3.47;;
27424;SDS011;15244;49.088;11.886;2023-05-10T03:51:42;4.47;;;4.05;;
27424;SDS011;15244;49.088;11.886;2023-05-10T03:56:44;4.38;;;4.03;;
27424;SDS011;15244;49.088;11.886;2023-05-10T04:01:46;4.28;;;3.85;;
27424;SDS011;15244;49.088;11.886;2023-05-10T04:06:48;6.68;;;3.92;;
27424;SDS011;15244;49.088;11.886;2023-05-10T04:11:49;4.75;;;4.35;;
27424;SDS011;15244;49.088;11.886;2023-05-10T04:16:51;5.72;;;4.97;;
27424;SDS011;15244;49.088;11.886;2023-05-10T04:21:53;5.25;;;4.57;;
27424;SDS011;15244;49.088;11.886;2023-05-10T04:26:54;4.70;;;4.38;;
27424;SDS011;15244;49.088;11.886;2023-05-10T04:31:58;5.20;;;4.70;;
27424;SDS011;15244;49.088;11.886;2023-05-10T04:36:59;7.97;;;5.28;;
27424;SDS011;15244;49.088;11.886;2023-05-10T04:42:02;5.35;;;4.65;;
27424;SDS011;15244;49.088;11.886;2023-05-10T04:47:04;5.60;;;4.72;;
27424;SDS011;15244;49.088;11.886;2023-05-10T04:52:06;5.25;;;4.95;;
27424;SDS011;15244;49.088;11.886;2023-05-10T04:57:07;5.05;;;4.65;;
27424;SDS011;15244;49.088;11.886;2023-05-10T05:02:09;4.82;;;4.38;;
27424;SDS011;15244;49.088;11.886;2023-05-10T05:07:11;7.63;;;4.57;;
27424;SDS011;15244;49.088;11.886;2023-05-10T05:12:12;4.55;;;4.28;;
27424;SDS011;15244;49.088;11.886;2023-05-10T05:17:15;5.18;;;4.70;;
27424;SDS011;15244;49.088;11.886;2023-05-10T05:22:17;6.13;;;4.70;;
27424;SDS011;15244;49.088;11.886;2023-05-10T05:27:20;4.28;;;3.90;;
27424;SDS011;15244;49.088;11.886;2023-05-10T05:32:25;4.13;;;3.72;;
27424;SDS011;15244;49.088;11.886;2023-05-10T05:37:27;2.78;;;2.58;;
27424;SDS011;15244;49.088;11.886;2023-05-10T05:42:28;2.38;;;2.28;;
27424;SDS011;15244;49.088;11.886;2023-05-10T05:47:33;2.78;;;1.85;;
27424;SDS011;15244;49.088;11.886;2023-05-10T05:52:35;1.73;;;1.63;;
27424;SDS011;15244;49.088;11.886;2023-05-10T05:57:38;1.10;;;1.10;;
27424;SDS011;15244;49.088;11.886;2023-05-10T06:02:40;0.88;;;0.80;;
27424;SDS011;15244;49.088;11.886;2023-05-10T06:07:42;0.60;;;0.60;;
27424;SDS011;15244;49.088;11.886;2023-05-10T06:12:44;0.70;;;0.68;;
27424;SDS011;15244;49.088;11.886;2023-05-10T06:17:46;0.30;;;0.30;;
27424;SDS011;15244;49.088;11.886;2023-05-10T06:22:51;0.30;;;0.30;;
27424;SDS011;15244;49.088;11.886;2023-05-10T06:27:52;0.35;;;0.30;;
27424;SDS011;15244;49.088;11.886;2023-05-10T06:32:58;0.30;;;0.20;;
27424;SDS011;15244;49.088;11.886;2023-05-10T06:38:00;0.32;;;0.32;;
27424;SDS011;15244;49.088;11.886;2023-05-10T06:43:02;0.28;;;0.20;;
27424;SDS011;15244;49.088;11.886;2023-05-10T06:48:04;0.20;;;0.20;;
27424;SDS011;15244;49.088;11.886;2023-05-10T06:53:06;0.30;;;0.30;;
27424;SDS011;15244;49.088;11.886;2023-05-10T06:58:07;0.20;;;0.20;;
27424;SDS011;15244;49.088;11.886;2023-05-10T07:03:09;0.20;;;0.20;;
27424;SDS011;15244;49.088;11.886;2023-05-10T07:08:12;0.20;;;0.20;;
27424;SDS011;15244;49.088;11.886;2023-05-10T07:13:14;0.25;;;0.25;;
27424;SDS011;15244;49.088;11.886;2023-05-10T07:18:16;0.20;;;0.20;;
27424;SDS011;15244;49.088;11.886;2023-05-10T07:23:18;0.28;;;0.28;;
27424;SDS011;15244;49.088;11.886;2023-05-10T07:28:19;0.20;;;0.20;;
27424;SDS011;15244;49.088;11.886;2023-05-10T07:33:21;0.25;;;0.20;;
27424;SDS011;15244;49.088;11.886;2023-05-10T07:38:23;0.28;;;0.28;;
27424;SDS011;15244;49.088;11.886;2023-05-10T07:43:25;0.30;;;0.30;;
27424;SDS011;15244;49.088;11.886;2023-05-10T07:48:26;0.30;;;0.30;;
27424;SDS011;15244;49.088;11.886;2023-05-10T07:53:28;0.30;;;0.30;;
27424;SDS011;15244;49.088;11.886;2023-05-10T07:58:29;0.30;;;0.30;;
27424;SDS011;15244;49.088;11.886;2023-05-10T08:03:32;0.30;;;0.30;;
27424;SDS011;15244;49.088;11.886;2023-05-10T08:08:34;0.30;;;0.30;;
27424;SDS011;15244;49.088;11.886;2023-05-10T08:13:36;0.38;;;0.38;;
27424;SDS011;15244;49.088;11.886;2023-05-10T08:18:39;0.32;;;0.32;;
27424;SDS011;15244;49.088;11.886;2023-05-10T08:23:40;0.50;;;0.50;;
27424;SDS011;15244;49.088;11.886;2023-05-10T08:28:42;0.40;;;0.28;;
27424;SDS011;15244;49.088;11.886;2023-05-10T08:33:44;1.00;;;0.43;;
27424;SDS011;15244;49.088;11.886;2023-05-10T08:38:45;0.57;;;0.57;;
27424;SDS011;15244;49.088;11.886;2023-05-10T08:43:50;0.50;;;0.40;;
27424;SDS011;15244;49.088;11.886;2023-05-10T08:48:55;1.73;;;0.55;;
27424;SDS011;15244;49.088;11.886;2023-05-10T08:54:01;1.20;;;0.70;;
27424;SDS011;15244;49.088;11.886;2023-05-10T08:59:03;0.57;;;0.57;;
27424;SDS011;15244;49.088;11.886;2023-05-10T09:04:05;0.40;;;0.40;;
27424;SDS011;15244;49.088;11.886;2023-05-10T09:09:07;0.50;;;0.50;;
27424;SDS011;15244;49.088;11.886;2023-05-10T09:14:10;0.47;;;0.47;;
27424;SDS011;15244;49.088;11.886;2023-05-10T09:19:13;0.52;;;0.40;;
27424;SDS011;15244;49.088;11.886;2023-05-10T09:24:15;0.73;;;0.50;;
27424;SDS011;15244;49.088;11.886;2023-05-10T09:29:16;0.75;;;0.68;;
27424;SDS011;15244;49.088;11.886;2023-05-10T09:34:19;0.40;;;0.40;;
27424;SDS011;15244;49.088;11.886;2023-05-10T09:39:29;0.65;;;0.65;;
27424;SDS011;15244;49.088;11.886;2023-05-10T09:44:35;0.40;;;0.40;;
27424;SDS011;15244;49.088;11.886;2023-05-10T09:49:37;0.70;;;0.45;;
27424;SDS011;15244;49.088;11.886;2023-05-10T09:54:39;7.25;;;0.90;;
27424;SDS011;15244;49.088;11.886;2023-05-10T09:59:53;0.50;;;0.50;;
27424;SDS011;15244;49.088;11.886;2023-05-10T10:04:55;0.60;;;0.60;;
27424;SDS011;15244;49.088;11.886;2023-05-10T10:09:58;0.50;;;0.50;;
27424;SDS011;15244;49.088;11.886;2023-05-10T10:15:00;0.50;;;0.50;;
27424;SDS011;15244;49.088;11.886;2023-05-10T10:20:02;1.30;;;0.28;;
27424;SDS011;15244;49.088;11.886;2023-05-10T10:25:05;0.38;;;0.38;;
27424;SDS011;15244;49.088;11.886;2023-05-10T10:30:16;0.20;;;0.20;;
27424;SDS011;15244;49.088;11.886;2023-05-10T10:35:32;0.38;;;0.32;;
27424;SDS011;15244;49.088;11.886;2023-05-10T10:40:35;1.00;;;0.40;;
27424;SDS011;15244;49.088;11.886;2023-05-10T10:45:38;1.27;;;0.60;;
27424;SDS011;15244;49.088;11.886;2023-05-10T10:50:45;0.40;;;0.40;;
27424;SDS011;15244;49.088;11.886;2023-05-10T10:55:48;0.47;;;0.47;;
27424;SDS011;15244;49.088;11.886;2023-05-10T11:00:50;0.30;;;0.30;;
27424;SDS011;15244;49.088;11.886;2023-05-10T11:05:53;1.35;;;0.20;;
27424;SDS011;15244;49.088;11.886;2023-05-10T11:21:49;0.47;;;0.20;;
27424;SDS011;15244;49.088;11.886;2023-05-10T11:27:06;0.50;;;0.50;;
27424;SDS011;15244;49.088;11.886;2023-05-10T11:32:08;0.20;;;0.17;;
27424;SDS011;15244;49.088;11.886;2023-05-10T11:37:10;0.57;;;0.30;;
27424;SDS011;15244;49.088;11.886;2023-05-10T11:42:11;0.60;;;0.40;;
27424;SDS011;15244;49.088;11.886;2023-05-10T11:47:13;0.98;;;0.25;;
27424;SDS011;15244;49.088;11.886;2023-05-10T11:52:15;0.43;;;0.40;;
27424;SDS011;15244;49.088;11.886;2023-05-10T11:57:17;0.52;;;0.52;;
27424;SDS011;15244;49.088;11.886;2023-05-10T12:02:19;1.55;;;0.60;;
27424;SDS011;15244;49.088;11.886;2023-05-10T12:07:23;1.90;;;0.70;;
27424;SDS011;15244;49.088;11.886;2023-05-10T12:12:24;3.50;;;0.60;;
27424;SDS011;15244;49.088;11.886;2023-05-10T12:17:29;0.40;;;0.35;;
27424;SDS011;15244;49.088;11.886;2023-05-10T12:22:33;0.60;;;0.50;;
27424;SDS011;15244;49.088;11.886;2023-05-10T12:27:36;0.50;;;0.50;;
27424;SDS011;15244;49.088;11.886;2023-05-10T12:32:38;0.63;;;0.60;;
27424;SDS011;15244;49.088;11.886;2023-05-10T12:37:42;0.70;;;0.70;;
27424;SDS011;15244;49.088;11.886;2023-05-10T12:42:46;1.85;;;0.60;;
27424;SDS011;15244;49.088;11.886;2023-05-10T12:47:48;1.05;;;0.40;;
27424;SDS011;15244;49.088;11.886;2023-05-10T12:52:49;2.53;;;0.77;;
27424;SDS011;15244;49.088;11.886;2023-05-10T12:57:51;0.80;;;0.80;;
27424;SDS011;15244;49.088;11.886;2023-05-10T13:02:52;0.75;;;0.75;;
27424;SDS011;15244;49.088;11.886;2023-05-10T13:07:54;0.60;;;0.55;;
27424;SDS011;15244;49.088;11.886;2023-05-10T13:12:57;0.43;;;0.40;;
27424;SDS011;15244;49.088;11.886;2023-05-10T13:17:59;0.55;;;0.40;;
27424;SDS011;15244;49.088;11.886;2023-05-10T13:23:01;1.10;;;0.80;;
27424;SDS011;15244;49.088;11.886;2023-05-10T13:28:03;0.80;;;0.80;;
27424;SDS011;15244;49.088;11.886;2023-05-10T13:33:06;0.75;;;0.75;;
27424;SDS011;15244;49.088;11.886;2023-05-10T13:38:07;1.83;;;0.77;;
27424;SDS011;15244;49.088;11.886;2023-05-10T13:43:09;0.80;;;0.77;;
27424;SDS011;15244;49.088;11.886;2023-05-10T13:48:11;1.20;;;1.00;;
27424;SDS011;15244;49.088;11.886;2023-05-10T13:53:14;0.80;;;0.80;;
27424;SDS011;15244;49.088;11.886;2023-05-10T13:58:16;0.90;;;0.90;;
27424;SDS011;15244;49.088;11.886;2023-05-10T14:03:18;1.23;;;0.73;;
27424;SDS011;15244;49.088;11.886;2023-05-10T14:08:20;0.80;;;0.80;;
27424;SDS011;15244;49.088;11.886;2023-05-10T14:13:23;1.20;;;0.90;;
27424;SDS011;15244;49.088;11.886;2023-05-10T14:18:25;1.20;;;0.90;;
27424;SDS011;15244;49.088;11.886;2023-05-10T14:23:27;1.08;;;0.98;;
27424;SDS011;15244;49.088;11.886;2023-05-10T14:28:30;1.40;;;1.10;;
27424;SDS011;15244;49.088;11.886;2023-05-10T14:33:31;0.90;;;0.90;;
27424;SDS011;15244;49.088;11.886;2023-05-10T14:38:33;0.82;;;0.80;;
27424;SDS011;15244;49.088;11.886;2023-05-10T14:43:34;1.63;;;0.60;;
27424;SDS011;15244;49.088;11.886;2023-05-10T14:48:37;1.52;;;0.70;;
27424;SDS011;15244;49.088;11.886;2023-05-10T14:53:39;1.00;;;1.00;;
27424;SDS011;15244;49.088;11.886;2023-05-10T14:58:40;1.30;;;1.20;;
27424;SDS011;15244;49.088;11.886;2023-05-10T15:03:42;2.67;;;1.15;;
27424;SDS011;15244;49.088;11.886;2023-05-10T15:08:44;1.60;;;1.20;;
27424;SDS011;15244;49.088;11.886;2023-05-10T15:13:45;2.90;;;0.90;;
27424;SDS011;15244;49.088;11.886;2023-05-10T15:18:48;1.50;;;1.15;;
27424;SDS011;15244;49.088;11.886;2023-05-10T15:23:50;2.38;;;1.20;;
27424;SDS011;15244;49.088;11.886;2023-05-10T15:28:51;1.42;;;1.08;;
27424;SDS011;15244;49.088;11.886;2023-05-10T15:33:57;1.55;;;1.08;;
27424;SDS011;15244;49.088;11.886;2023-05-10T15:39:02;1.73;;;1.10;;
27424;SDS011;15244;49.088;11.886;2023-05-10T15:44:04;2.00;;;1.35;;
27424;SDS011;15244;49.088;11.886;2023-05-10T15:49:06;1.50;;;1.20;;
27424;SDS011;15244;49.088;11.886;2023-05-10T15:54:08;2.28;;;0.82;;
27424;SDS011;15244;49.088;11.886;2023-05-10T15:59:10;1.83;;;1.20;;
27424;SDS011;15244;49.088;11.886;2023-05-10T16:04:12;2.50;;;0.90;;
27424;SDS011;15244;49.088;11.886;2023-05-10T16:09:13;1.10;;;0.93;;
27424;SDS011;15244;49.088;11.886;2023-05-10T16:14:15;0.90;;;0.90;;
27424;SDS011;15244;49.088;11.886;2023-05-10T16:19:17;1.10;;;1.00;;
27424;SDS011;15244;49.088;11.886;2023-05-10T16:24:19;2.20;;;0.95;;
27424;SDS011;15244;49.088;11.886;2023-05-10T16:29:21;0.93;;;0.93;;
27424;SDS011;15244;49.088;11.886;2023-05-10T16:34:22;0.70;;;0.65;;
27424;SDS011;15244;49.088;11.886;2023-05-10T16:39:25;1.45;;;0.80;;
27424;SDS011;15244;49.088;11.886;2023-05-10T16:44:27;1.60;;;1.20;;
27424;SDS011;15244;49.088;11.886;2023-05-10T16:49:28;1.45;;;1.35;;
27424;SDS011;15244;49.088;11.886;2023-05-10T16:54:30;1.40;;;1.25;;
27424;SDS011;15244;49.088;11.886;2023-05-10T16:59:32;4.10;;;1.42;;
27424;SDS011;15244;49.088;11.886;2023-05-10T17:04:34;1.60;;;1.50;;
27424;SDS011;15244;49.088;11.886;2023-05-10T17:09:35;1.17;;;1.08;;
27424;SDS011;15244;49.088;11.886;2023-05-10T17:14:37;1.48;;;1.23;;
27424;SDS011;15244;49.088;11.886;2023-05-10T17:19:39;1.70;;;1.50;;
27424;SDS011;15244;49.088;11.886;2023-05-10T17:24:40;0.98;;;0.98;;
27424;SDS011;15244;49.088;11.886;2023-05-10T17:29:42;1.20;;;1.20;;
27424;SDS011;15244;49.088;11.886;2023-05-10T17:34:44;1.30;;;1.20;;
27424;SDS011;15244;49.088;11.886;2023-05-10T17:39:45;1.70;;;1.60;;
27424;SDS011;15244;49.088;11.886;2023-05-10T17:44:47;5.28;;;1.58;;
27424;SDS011;15244;49.088;11.886;2023-05-10T17:49:48;1.85;;;1.65;;
27424;SDS011;15244;49.088;11.886;2023-05-10T17:54:50;1.52;;;1.38;;
27424;SDS011;15244;49.088;11.886;2023-05-10T17:59:52;1.17;;;1.00;;
27424;SDS011;15244;49.088;11.886;2023-05-10T18:04:54;1.17;;;1.17;;
27424;SDS011;15244;49.088;11.886;2023-05-10T18:10:00;1.20;;;1.13;;
27424;SDS011;15244;49.088;11.886;2023-05-10T18:15:01;1.38;;;1.27;;
27424;SDS011;15244;49.088;11.886;2023-05-10T18:20:03;2.20;;;1.45;;
27424;SDS011;15244;49.088;11.886;2023-05-10T18:25:06;2.47;;;1.30;;
27424;SDS011;15244;49.088;11.886;2023-05-10T18:30:08;0.98;;;0.98;;
27424;SDS011;15244;49.088;11.886;2023-05-10T18:35:12;1.17;;;1.17;;
27424;SDS011;15244;49.088;11.886;2023-05-10T18:40:15;1.65;;;1.55;;
27424;SDS011;15244;49.088;11.886;2023-05-10T18:45:17;2.47;;;1.60;;
27424;SDS011;15244;49.088;11.886;2023-05-10T18:50:19;2.65;;;1.40;;
27424;SDS011;15244;49.088;11.886;2023-05-10T18:55:22;1.50;;;1.40;;
27424;SDS011;15244;49.088;11.886;2023-05-10T19:00:26;7.28;;;6.53;;
27424;SDS011;15244;49.088;11.886;2023-05-10T19:05:28;4.45;;;4.15;;
27424;SDS011;15244;49.088;11.886;2023-05-10T19:10:31;7.32;;;4.30;;
27424;SDS011;15244;49.088;11.886;2023-05-10T19:15:33;2.88;;;1.70;;
27424;SDS011;15244;49.088;11.886;2023-05-10T19:20:35;1.88;;;1.67;;
27424;SDS011;15244;49.088;11.886;2023-05-10T19:25:36;1.85;;;1.63;;
27424;SDS011;15244;49.088;11.886;2023-05-10T19:30:39;1.65;;;1.55;;
27424;SDS011;15244;49.088;11.886;2023-05-10T19:35:41;1.83;;;1.73;;
27424;SDS011;15244;49.088;11.886;2023-05-10T19:40:43;2.78;;;1.63;;
27424;SDS011;15244;49.088;11.886;2023-05-10T19:45:44;2.40;;;1.15;;
27424;SDS011;15244;49.088;11.886;2023-05-10T19:50:46;1.95;;;1.63;;
27424;SDS011;15244;49.088;11.886;2023-05-10T19:55:48;2.63;;;1.75;;
27424;SDS011;15244;49.088;11.886;2023-05-10T20:00:50;2.65;;;1.50;;
27424;SDS011;15244;49.088;11.886;2023-05-10T20:05:51;1.52;;;1.42;;
27424;SDS011;15244;49.088;11.886;2023-05-10T20:10:53;1.30;;;1.30;;
27424;SDS011;15244;49.088;11.886;2023-05-10T20:15:55;2.55;;;1.15;;
27424;SDS011;15244;49.088;11.886;2023-05-10T20:20:58;1.50;;;1.30;;
27424;SDS011;15244;49.088;11.886;2023-05-10T20:26:01;1.73;;;1.63;;
27424;SDS011;15244;49.088;11.886;2023-05-10T20:31:02;2.38;;;1.60;;
27424;SDS011;15244;49.088;11.886;2023-05-10T20:36:04;1.67;;;1.58;;
27424;SDS011;15244;49.088;11.886;2023-05-10T20:41:06;1.50;;;1.40;;
27424;SDS011;15244;49.088;11.886;2023-05-10T20:46:08;1.45;;;1.35;;
27424;SDS011;15244;49.088;11.886;2023-05-10T20:51:10;1.60;;;1.50;;
27424;SDS011;15244;49.088;11.886;2023-05-10T20:56:12;1.70;;;1.58;;
27424;SDS011;15244;49.088;11.886;2023-05-10T21:01:14;1.55;;;1.40;;
27424;SDS011;15244;49.088;11.886;2023-05-10T21:06:16;2.08;;;1.98;;
27424;SDS011;15244;49.088;11.886;2023-05-10T21:11:17;1.98;;;1.88;;
27424;SDS011;15244;49.088;11.886;2023-05-10T21:16:19;1.83;;;1.73;;
27424;SDS011;15244;49.088;11.886;2023-05-10T21:21:21;1.90;;;1.80;;
27424;SDS011;15244;49.088;11.886;2023-05-10T21:26:22;2.10;;;2.00;;
27424;SDS011;15244;49.088;11.886;2023-05-10T21:31:24;1.60;;;1.50;;
27424;SDS011;15244;49.088;11.886;2023-05-10T21:36:26;1.52;;;1.42;;
27424;SDS011;15244;49.088;11.886;2023-05-10T21:41:28;1.58;;;1.48;;
27424;SDS011;15244;49.088;11.886;2023-05-10T21:46:29;1.50;;;1.40;;
27424;SDS011;15244;49.088;11.886;2023-05-10T21:51:31;2.05;;;1.58;;
27424;SDS011;15244;49.088;11.886;2023-05-10T21:56:32;1.67;;;1.58;;
27424;SDS011;15244;49.088;11.886;2023-05-10T22:01:34;1.58;;;1.42;;
27424;SDS011;15244;49.088;11.886;2023-05-10T22:06:36;1.88;;;1.52;;
27424;SDS011;15244;49.088;11.886;2023-05-10T22:11:37;1.80;;;1.70;;
27424;SDS011;15244;49.088;11.886;2023-05-10T22:16:39;2.83;;;1.60;;
27424;SDS011;15244;49.088;11.886;2023-05-10T22:21:41;1.98;;;1.88;;
27424;SDS011;15244;49.088;11.886;2023-05-10T22:26:42;1.98;;;1.88;;
27424;SDS011;15244;49.088;11.886;2023-05-10T22:31:44;3.30;;;2.10;;
27424;SDS011;15244;49.088;11.886;2023-05-10T22:36:46;2.20;;;2.10;;
27424;SDS011;15244;49.088;11.886;2023-05-10T22:41:49;2.20;;;2.08;;
27424;SDS011;15244;49.088;11.886;2023-05-10T22:46:50;1.98;;;1.88;;
27424;SDS011;15244;49.088;11.886;2023-05-10T22:51:52;2.15;;;2.05;;
27424;SDS011;15244;49.088;11.886;2023-05-10T22:56:54;2.72;;;2.50;;
27424;SDS011;15244;49.088;11.886;2023-05-10T23:01:56;2.47;;;2.28;;
27424;SDS011;15244;49.088;11.886;2023-05-10T23:06:58;2.00;;;1.90;;
27424;SDS011;15244;49.088;11.886;2023-05-10T23:12:00;2.97;;;2.00;;
27424;SDS011;15244;49.088;11.886;2023-05-10T23:17:01;2.78;;;2.28;;
27424;SDS011;15244;49.088;11.886;2023-05-10T23:22:03;1.90;;;1.80;;
27424;SDS011;15244;49.088;11.886;2023-05-10T23:27:04;2.10;;;2.00;;
27424;SDS011;15244;49.088;11.886;2023-05-10T23:32:06;3.80;;;1.92;;
27424;SDS011;15244;49.088;11.886;2023-05-10T23:37:08;2.47;;;2.25;;
27424;SDS011;15244;49.088;11.886;2023-05-10T23:42:09;2.10;;;2.00;;
27424;SDS011;15244;49.088;11.886;2023-05-10T23:47:11;2.15;;;1.60;;
27424;SDS011;15244;49.088;11.886;2023-05-10T23:52:13;1.88;;;1.77;;
27424;SDS011;15244;49.088;11.886;2023-05-10T23:57:14;2.47;;;1.73;;
